Terminal Aerodrome Forecast
Issued by NWS

Home | Current Version | Previous Version | Text Only | Print | Product List | Glossary On
Versions: 1 2 3 4 5 6 7 8 9 10 11 12 13 14 15 16 17 18 19
000
FTUS41 KBTV 241008 AAA
TAFSLK
TAF AMD
KSLK 241008Z 2410/2506 28006KT P6SM VCSH SCT005 OVC020
      TEMPO 2410/2413 BKN005
     FM241300 25007KT P6SM BKN120
     FM241500 29007KT P6SM SCT120
     FM250000 24005KT P6SM SCT150=

USA.gov is the U.S. government's official web portal to all federal, state and local government web resources and services.